New Orleans, Louisiana
Traffic Map
Current Weather Conditions
New Orleans, Louisiana
Clear
Clear
31°
Feels Like: 35°
Wind Chill: 31° Ceiling: Unl
Heat Index: 35° Visibility: 10mi
Dew Point: 23° Wind: 9mph
Humidity: 61% Direction: 100° (E)
Pressure: 29.87in Gusts: 0mph
Raw Report DataKNEW 302353Z AUTO 10008KT 10SM CLR 31/23 A2987 RMK AO2 SLP107 T03110228 10333 20311 56010
Traffic Incident Summary
Active as of:
Severity:
Category:
InformationThere was an issue retrieving the traffic information for this location. Please try a different location or try again shortly.
Advertisements
Track Severe Weather on mobile